createdAt,value
2023-02-01T00:01:51.998Z,3.90
2023-02-01T00:04:20.474Z,4.28
2023-02-01T00:06:49.211Z,4.35
2023-02-01T00:09:17.907Z,3.45
2023-02-01T00:11:46.621Z,4.00
2023-02-01T00:14:18.325Z,4.07
2023-02-01T00:16:47.072Z,3.67
2023-02-01T00:19:17.461Z,3.45
2023-02-01T00:21:46.909Z,3.88
2023-02-01T00:24:15.807Z,4.65
2023-02-01T00:26:46.276Z,3.67
2023-02-01T00:29:19.429Z,3.35
2023-02-01T00:31:48.712Z,3.65
2023-02-01T00:34:19.020Z,3.90
2023-02-01T00:36:47.944Z,3.10
2023-02-01T00:39:19.009Z,3.25
2023-02-01T00:41:47.507Z,3.65
2023-02-01T00:44:17.799Z,2.58
2023-02-01T00:46:46.486Z,3.35
2023-02-01T00:49:15.294Z,4.05
2023-02-01T00:51:43.894Z,3.53
2023-02-01T00:54:12.244Z,3.70
2023-02-01T00:56:41.270Z,3.72
2023-02-01T00:59:14.122Z,2.35
2023-02-01T01:01:44.200Z,3.20
2023-02-01T01:04:13.822Z,3.00
2023-02-01T01:06:42.240Z,3.30
2023-02-01T01:09:10.884Z,2.78
2023-02-01T01:11:41.071Z,2.60
2023-02-01T01:14:11.677Z,3.30
2023-02-01T01:16:40.327Z,2.95
2023-02-01T01:19:10.431Z,2.83
2023-02-01T01:21:39.594Z,2.20
2023-02-01T01:24:08.674Z,2.40
2023-02-01T01:26:37.617Z,3.10
2023-02-01T01:29:06.439Z,3.10
2023-02-01T01:31:35.047Z,2.70
2023-02-01T01:34:03.825Z,2.28
2023-02-01T01:36:33.693Z,3.20
2023-02-01T01:39:02.430Z,3.28
2023-02-01T01:41:34.135Z,3.38
2023-02-01T01:44:04.919Z,3.30
2023-02-01T01:46:37.119Z,4.25
2023-02-01T01:49:11.775Z,3.08
2023-02-01T01:51:45.397Z,3.85
2023-02-01T01:54:19.645Z,3.28
2023-02-01T01:56:52.689Z,3.50
2023-02-01T01:59:23.162Z,3.55
2023-02-01T02:01:52.215Z,3.05
2023-02-01T02:04:21.658Z,3.38
2023-02-01T02:06:57.087Z,3.13
2023-02-01T02:09:26.127Z,3.20
2023-02-01T02:11:54.819Z,3.80
2023-02-01T02:14:25.973Z,3.95
2023-02-01T02:17:23.619Z,3.72
2023-02-01T02:20:27.967Z,3.90
2023-02-01T02:23:47.461Z,3.67
2023-02-01T02:26:41.088Z,3.35
2023-02-01T02:29:47.603Z,4.43
2023-02-01T02:32:43.935Z,2.95
2023-02-01T02:35:28.978Z,4.00
2023-02-01T02:38:08.930Z,4.22
2023-02-01T02:40:45.026Z,3.47
2023-02-01T02:43:40.642Z,4.00
2023-02-01T02:46:40.654Z,4.10
2023-02-01T02:49:22.211Z,3.85
2023-02-01T02:52:14.459Z,3.67
2023-02-01T02:54:53.156Z,3.80
2023-02-01T02:57:42.808Z,4.47
2023-02-01T03:00:32.418Z,3.55
2023-02-01T03:03:18.377Z,4.70
2023-02-01T03:05:48.785Z,3.60
2023-02-01T03:08:20.961Z,3.70
2023-02-01T03:10:59.412Z,3.55
2023-02-01T03:13:35.201Z,4.18
2023-02-01T03:16:10.446Z,4.25
2023-02-01T03:18:45.698Z,3.92
2023-02-01T03:21:20.545Z,3.47
2023-02-01T03:23:52.033Z,3.50
2023-02-01T03:26:23.097Z,3.47
2023-02-01T03:28:58.229Z,3.10
2023-02-01T03:31:27.314Z,3.92
2023-02-01T03:33:57.180Z,3.95
2023-02-01T03:36:32.416Z,4.15
2023-02-01T03:39:08.596Z,3.90
2023-02-01T03:41:43.684Z,5.30
2023-02-01T03:44:17.806Z,4.22
2023-02-01T03:46:51.118Z,3.47
2023-02-01T03:49:26.214Z,3.70
2023-02-01T03:51:58.883Z,3.38
2023-02-01T03:54:32.743Z,3.53
2023-02-01T03:57:05.625Z,2.90
2023-02-01T03:59:34.226Z,3.72
2023-02-01T04:02:03.017Z,4.55
2023-02-01T04:04:33.175Z,4.45
2023-02-01T04:07:01.888Z,3.47
2023-02-01T04:09:32.289Z,3.13
2023-02-01T04:12:01.171Z,3.05
2023-02-01T04:14:29.802Z,4.03
2023-02-01T04:16:58.363Z,4.22
2023-02-01T04:19:29.025Z,3.20
2023-02-01T04:21:57.693Z,3.28
2023-02-01T04:24:27.300Z,3.50
2023-02-01T04:26:57.494Z,3.70
2023-02-01T04:29:26.064Z,3.72
2023-02-01T04:31:54.713Z,3.92
2023-02-01T04:34:26.114Z,2.90
2023-02-01T04:36:55.669Z,3.22
2023-02-01T04:39:24.237Z,3.78
2023-02-01T04:41:53.411Z,2.50
2023-02-01T04:44:23.199Z,2.67
2023-02-01T04:46:57.673Z,2.95
2023-02-01T04:49:28.010Z,3.50
2023-02-01T04:51:56.634Z,3.13
2023-02-01T04:54:26.529Z,3.35
2023-02-01T04:56:55.186Z,3.90
2023-02-01T04:59:26.352Z,2.83
2023-02-01T05:01:55.071Z,3.33
2023-02-01T05:04:23.697Z,3.20
2023-02-01T05:06:52.375Z,3.35
2023-02-01T05:09:22.467Z,3.47
2023-02-01T05:12:08.338Z,3.47
2023-02-01T05:14:38.471Z,3.13
2023-02-01T05:17:07.077Z,4.55
2023-02-01T05:19:36.836Z,2.72
2023-02-01T05:22:05.874Z,3.30
2023-02-01T05:24:35.566Z,3.47
2023-02-01T05:27:03.948Z,3.95
2023-02-01T05:29:32.633Z,2.60
2023-02-01T05:32:19.303Z,3.05
2023-02-01T05:34:50.382Z,3.50
2023-02-01T05:37:20.653Z,3.42
2023-02-01T05:39:49.031Z,2.90
2023-02-01T05:42:17.759Z,3.30
2023-02-01T05:44:46.737Z,3.00
2023-02-01T05:47:16.787Z,3.47
2023-02-01T05:49:45.507Z,4.13
2023-02-01T05:52:20.438Z,3.65
2023-02-01T05:54:49.305Z,4.22
2023-02-01T05:57:21.000Z,3.17
2023-02-01T05:59:50.626Z,4.03
2023-02-01T06:02:20.779Z,4.05
2023-02-01T06:04:49.781Z,3.92
2023-02-01T06:07:18.591Z,4.20
2023-02-01T06:09:47.145Z,3.33
2023-02-01T06:12:16.142Z,3.67
2023-02-01T06:14:45.051Z,3.60
2023-02-01T06:17:14.370Z,5.03
2023-02-01T06:19:46.529Z,3.22
2023-02-01T06:22:15.186Z,4.05
2023-02-01T06:24:43.442Z,3.75
2023-02-01T06:27:12.428Z,3.22
2023-02-01T06:29:40.957Z,3.63
2023-02-01T06:32:09.948Z,4.07
2023-02-01T06:34:38.917Z,2.70
2023-02-01T06:37:09.360Z,3.53
2023-02-01T06:39:37.914Z,3.47
2023-02-01T06:42:07.166Z,3.97
2023-02-01T06:44:36.631Z,3.63
2023-02-01T06:57:12.497Z,3.72
2023-02-01T07:02:43.825Z,4.03
2023-02-01T07:35:41.207Z,3.50
2023-02-01T07:38:17.171Z,4.15
2023-02-01T07:44:44.013Z,3.72
2023-02-01T07:54:21.998Z,3.72
2023-02-01T08:03:29.501Z,4.03
2023-02-01T08:08:40.268Z,4.18
2023-02-01T08:26:16.845Z,4.13
2023-02-01T08:29:02.853Z,4.00
2023-02-01T08:31:31.732Z,3.80
2023-02-01T08:41:13.647Z,4.18
2023-02-01T08:47:39.792Z,4.53
2023-02-01T08:50:33.553Z,3.80
2023-02-01T08:53:42.869Z,3.67
2023-02-01T08:56:37.066Z,3.50
2023-02-01T08:59:06.378Z,4.15
2023-02-01T09:01:35.114Z,3.75
2023-02-01T09:04:05.220Z,4.45
2023-02-01T09:06:33.737Z,3.80
2023-02-01T09:09:02.007Z,4.32
2023-02-01T09:11:30.773Z,4.10
2023-02-01T09:13:59.158Z,3.95
2023-02-01T12:32:20.282Z,2.80
2023-02-01T12:52:47.068Z,3.33
2023-02-01T12:55:24.005Z,3.47
2023-02-01T12:57:58.398Z,3.38
2023-02-01T13:00:34.149Z,3.10
2023-02-01T13:03:16.178Z,3.28
2023-02-01T13:05:53.283Z,3.35
2023-02-01T13:08:28.106Z,3.25
2023-02-01T13:11:03.111Z,3.78
2023-02-01T13:13:40.364Z,3.20
2023-02-01T13:16:19.063Z,3.17
2023-02-01T13:18:54.516Z,3.38
2023-02-01T13:21:30.764Z,3.75
2023-02-01T13:24:01.099Z,3.45
2023-02-01T13:26:30.278Z,3.95
2023-02-01T13:29:04.577Z,3.78
2023-02-01T13:31:50.941Z,3.00
2023-02-01T13:34:54.058Z,2.78
2023-02-01T13:37:39.975Z,3.20
2023-02-01T13:40:20.906Z,3.42
2023-02-01T13:42:54.474Z,3.38
2023-02-01T13:45:27.742Z,3.70
2023-02-01T13:48:03.393Z,2.45
2023-02-01T13:50:39.797Z,2.70
2023-02-01T13:53:22.040Z,2.75
2023-02-01T13:55:59.880Z,2.40
2023-02-01T13:58:38.727Z,3.05
2023-02-01T14:01:38.670Z,2.10
2023-02-01T14:04:09.428Z,2.47
2023-02-01T14:06:44.635Z,2.00
2023-02-01T14:09:21.102Z,2.42
2023-02-01T14:11:58.737Z,2.40
2023-02-01T14:14:48.848Z,2.40
2023-02-01T14:17:39.006Z,2.47
2023-02-01T14:20:54.465Z,2.50
2023-02-01T14:23:26.895Z,2.80
2023-02-01T14:26:24.128Z,2.60
2023-02-01T14:28:57.093Z,2.60
2023-02-01T14:31:50.283Z,2.38
2023-02-01T14:34:27.577Z,2.53
2023-02-01T14:37:07.809Z,2.50
2023-02-01T14:39:53.425Z,2.75
2023-02-01T14:42:28.520Z,2.70
2023-02-01T14:45:18.713Z,2.72
2023-02-01T14:47:49.114Z,3.05
2023-02-01T14:50:33.507Z,2.70
2023-02-01T14:53:16.039Z,2.65
2023-02-01T14:55:50.213Z,2.38
2023-02-01T14:58:38.844Z,2.50
2023-02-01T15:01:20.903Z,3.70
2023-02-01T15:04:01.429Z,2.88
2023-02-01T15:06:34.342Z,2.38
2023-02-01T15:09:10.170Z,2.85
2023-02-01T15:11:57.906Z,2.67
2023-02-01T15:14:29.945Z,2.70
2023-02-01T15:16:58.488Z,2.67
2023-02-01T15:19:30.013Z,2.67
2023-02-01T15:22:01.415Z,2.83
2023-02-01T15:24:31.946Z,2.83
2023-02-01T15:27:07.724Z,2.65
2023-02-01T15:29:38.954Z,2.85
2023-02-01T15:32:09.850Z,3.22
2023-02-01T15:34:50.091Z,3.15
2023-02-01T15:37:21.554Z,2.92
2023-02-01T15:40:25.758Z,2.60
2023-02-01T15:42:56.941Z,2.72
2023-02-01T15:45:29.885Z,2.70
2023-02-01T15:48:00.577Z,2.10
2023-02-01T15:50:32.678Z,3.45
2023-02-01T15:53:01.997Z,2.95
2023-02-01T15:55:40.893Z,2.22
2023-02-01T15:58:17.382Z,2.50
2023-02-01T16:00:51.464Z,2.38
2023-02-01T16:03:31.248Z,2.50
2023-02-01T16:06:02.172Z,2.38
2023-02-01T16:08:35.994Z,3.05
2023-02-01T16:11:29.368Z,2.03
2023-02-01T16:13:57.991Z,2.58
2023-02-01T16:16:29.798Z,2.08
2023-02-01T16:18:58.806Z,2.00
2023-02-01T16:21:27.532Z,3.10
2023-02-01T16:23:56.107Z,1.65
2023-02-01T16:26:25.682Z,2.28
2023-02-01T16:28:54.527Z,2.38
2023-02-01T16:31:30.305Z,2.05
2023-02-01T16:34:00.431Z,2.15
2023-02-01T16:36:29.992Z,3.13
2023-02-01T16:38:58.649Z,2.55
2023-02-01T16:41:29.281Z,2.20
2023-02-01T16:43:58.255Z,2.38
2023-02-01T16:46:32.018Z,2.50
2023-02-01T16:49:03.111Z,2.60
2023-02-01T16:51:34.584Z,2.92
2023-02-01T16:54:03.775Z,2.47
2023-02-01T16:56:34.941Z,3.05
2023-02-01T16:59:04.456Z,3.30
2023-02-01T17:01:34.719Z,3.17
2023-02-01T17:04:03.856Z,3.38
2023-02-01T17:06:33.846Z,3.22
2023-02-01T17:09:04.580Z,3.88
2023-02-01T17:11:33.611Z,3.10
2023-02-01T17:14:12.468Z,2.92
2023-02-01T17:16:43.802Z,3.75
2023-02-01T17:19:17.135Z,3.63
2023-02-01T17:21:49.482Z,3.50
2023-02-01T17:24:20.245Z,2.63
2023-02-01T17:26:50.166Z,3.90
2023-02-01T17:29:20.081Z,2.78
2023-02-01T17:31:52.785Z,3.42
2023-02-01T17:34:21.145Z,2.95
2023-02-01T17:36:50.675Z,4.07
2023-02-01T17:39:33.260Z,3.58
2023-02-01T17:42:02.847Z,2.85
2023-02-01T17:44:32.317Z,3.45
2023-02-01T17:47:02.408Z,3.60
2023-02-01T17:49:31.116Z,3.40
2023-02-01T17:52:00.208Z,3.10
2023-02-01T17:54:28.871Z,3.45
2023-02-01T17:57:00.417Z,3.13
2023-02-01T17:59:29.102Z,4.28
2023-02-01T18:02:01.410Z,3.22
2023-02-01T18:04:31.947Z,4.32
2023-02-01T18:07:00.557Z,4.25
2023-02-01T18:09:29.244Z,3.25
2023-02-01T18:11:58.033Z,3.75
2023-02-01T18:14:26.642Z,3.85
2023-02-01T18:16:55.559Z,2.72
2023-02-01T18:19:24.269Z,4.53
2023-02-01T18:21:54.415Z,4.50
2023-02-01T18:24:26.638Z,3.40
2023-02-01T18:26:57.418Z,4.43
2023-02-01T18:29:26.412Z,4.03
2023-02-01T18:31:57.299Z,3.65
2023-02-01T18:34:27.404Z,3.10
2023-02-01T18:36:57.556Z,3.72
2023-02-01T18:39:26.174Z,4.30
2023-02-01T18:41:54.899Z,5.18
2023-02-01T18:44:24.699Z,3.53
2023-02-01T18:46:53.465Z,4.35
2023-02-01T18:49:22.082Z,5.80
2023-02-01T18:51:52.532Z,4.82
2023-02-01T18:54:24.988Z,5.05
2023-02-01T18:56:54.253Z,4.80
2023-02-01T18:59:22.878Z,4.93
2023-02-01T19:01:51.466Z,4.82
2023-02-01T19:04:22.019Z,4.63
2023-02-01T19:06:54.556Z,4.50
2023-02-01T19:09:24.562Z,4.95
2023-02-01T19:11:53.211Z,7.07
2023-02-01T19:14:21.870Z,5.70
2023-02-01T19:17:04.096Z,4.07
2023-02-01T19:19:32.722Z,4.38
2023-02-01T19:22:01.225Z,4.00
2023-02-01T19:24:31.610Z,3.95
2023-02-01T19:27:00.227Z,3.50
2023-02-01T19:29:30.053Z,3.60
2023-02-01T19:31:58.875Z,3.50
2023-02-01T19:34:27.468Z,3.97
2023-02-01T19:36:56.346Z,4.35
2023-02-01T19:39:25.318Z,4.15
2023-02-01T19:41:55.635Z,4.03
2023-02-01T19:44:24.321Z,3.80
2023-02-01T19:46:52.890Z,3.42
2023-02-01T19:49:21.574Z,3.70
2023-02-01T19:51:50.290Z,3.30
2023-02-01T19:54:18.796Z,3.97
2023-02-01T19:56:49.284Z,3.80
2023-02-01T19:59:22.889Z,3.13
2023-02-01T20:01:51.975Z,3.60
2023-02-01T20:04:20.897Z,3.83
2023-02-01T20:06:50.561Z,4.03
2023-02-01T20:09:21.174Z,4.30
2023-02-01T20:11:53.973Z,3.45
2023-02-01T20:14:26.791Z,5.35
2023-02-01T20:16:55.615Z,5.00
2023-02-01T20:19:24.727Z,5.10
2023-02-01T20:21:53.161Z,4.63
2023-02-01T20:24:21.641Z,4.60
2023-02-01T20:26:51.306Z,7.05
2023-02-01T20:29:20.055Z,4.80
2023-02-01T20:31:50.222Z,5.47
2023-02-01T20:34:18.718Z,4.40
2023-02-01T20:36:47.589Z,4.80
2023-02-01T20:39:16.079Z,4.60
2023-02-01T20:41:45.299Z,4.10
2023-02-01T20:44:15.823Z,4.90
2023-02-01T20:46:44.769Z,5.30
2023-02-01T20:49:15.103Z,4.28
2023-02-01T20:51:43.854Z,5.00
2023-02-01T20:54:12.357Z,5.57
2023-02-01T20:56:40.977Z,4.72
2023-02-01T20:59:12.722Z,4.50
2023-02-01T21:01:53.107Z,4.07
2023-02-01T21:04:29.682Z,4.07
2023-02-01T21:06:59.511Z,3.75
2023-02-01T21:09:30.334Z,4.32
2023-02-01T21:11:59.713Z,4.22
2023-02-01T21:14:29.497Z,3.00
2023-02-01T21:16:57.933Z,3.90
2023-02-01T21:19:28.220Z,2.83
2023-02-01T21:21:56.893Z,2.95
2023-02-01T21:24:25.485Z,3.75
2023-02-01T21:26:54.268Z,3.47
2023-02-01T21:29:22.935Z,3.60
2023-02-01T21:31:51.581Z,3.63
2023-02-01T21:34:20.482Z,2.90
2023-02-01T21:36:51.740Z,2.42
2023-02-01T21:39:20.127Z,3.03
2023-02-01T21:42:06.011Z,3.30
2023-02-01T21:44:34.663Z,3.58
2023-02-01T21:47:03.793Z,2.85
2023-02-01T21:49:32.639Z,2.80
2023-02-01T21:52:02.563Z,2.83
2023-02-01T21:54:31.148Z,3.03
2023-02-01T21:56:59.646Z,3.25
2023-02-01T21:59:28.089Z,4.20
2023-02-01T22:01:56.819Z,4.40
2023-02-01T22:04:25.491Z,3.05
2023-02-01T22:06:54.164Z,3.42
2023-02-01T22:09:25.972Z,3.30
2023-02-01T22:11:56.785Z,3.33
2023-02-01T22:14:25.626Z,3.25
2023-02-01T22:16:54.216Z,3.20
2023-02-01T22:19:23.770Z,2.80
2023-02-01T22:21:52.274Z,2.47
2023-02-01T22:24:22.346Z,2.85
2023-02-01T22:26:52.707Z,2.30
2023-02-01T22:29:28.689Z,3.00
2023-02-01T22:31:57.744Z,2.50
2023-02-01T22:34:27.502Z,3.20
2023-02-01T22:36:56.347Z,2.85
2023-02-01T22:39:26.052Z,3.90
2023-02-01T22:41:56.045Z,2.63
2023-02-01T22:44:27.940Z,3.45
2023-02-01T22:46:56.551Z,2.80
2023-02-01T22:49:27.037Z,1.92
2023-02-01T22:51:55.428Z,2.20
2023-02-01T22:54:23.916Z,3.05
2023-02-01T22:56:52.672Z,2.60
2023-02-01T22:59:22.657Z,2.10
2023-02-01T23:01:53.503Z,3.05
2023-02-01T23:04:23.064Z,2.75
2023-02-01T23:06:52.980Z,2.13
2023-02-01T23:09:25.604Z,2.88
2023-02-01T23:11:56.226Z,3.10
2023-02-01T23:14:26.237Z,2.80
2023-02-01T23:16:54.717Z,2.47
2023-02-01T23:19:23.488Z,2.10
2023-02-01T23:21:53.187Z,2.38
2023-02-01T23:24:22.053Z,1.50
2023-02-01T23:26:50.933Z,1.90
2023-02-01T23:29:20.433Z,2.30
2023-02-01T23:31:50.613Z,2.13
2023-02-01T23:34:19.347Z,2.03
2023-02-01T23:36:47.903Z,2.38
2023-02-01T23:39:16.474Z,1.90
2023-02-01T23:41:45.057Z,2.75
2023-02-01T23:44:13.560Z,1.73
2023-02-01T23:46:47.537Z,2.17
2023-02-01T23:49:18.973Z,2.25
2023-02-01T23:51:51.745Z,2.38
2023-02-01T23:54:23.111Z,1.83
2023-02-01T23:56:51.744Z,2.42
2023-02-01T23:59:22.204Z,2.47
